createdAt,value
2017-09-17T00:01:43.782Z,21.63
2017-09-17T00:04:11.319Z,23.13
2017-09-17T00:06:38.983Z,15.83
2017-09-17T00:09:06.555Z,13.37
2017-09-17T00:11:34.076Z,14.90
2017-09-17T00:14:01.655Z,18.80
2017-09-17T00:16:29.150Z,21.57
2017-09-17T00:18:56.688Z,15.80
2017-09-17T00:21:24.547Z,13.90
2017-09-17T00:23:52.213Z,15.40
2017-09-17T00:26:19.718Z,14.80
2017-09-17T00:28:47.679Z,15.77
2017-09-17T00:31:15.177Z,17.30
2017-09-17T00:33:43.684Z,17.70
2017-09-17T00:36:11.539Z,15.60
2017-09-17T00:38:39.039Z,16.30
2017-09-17T00:41:06.557Z,14.30
2017-09-17T00:43:34.314Z,13.23
2017-09-17T00:46:01.843Z,12.97
2017-09-17T00:48:29.359Z,15.60
2017-09-17T00:50:57.154Z,15.07
2017-09-17T00:53:24.703Z,18.27
2017-09-17T00:55:52.382Z,14.07
2017-09-17T00:58:20.698Z,15.40
2017-09-17T01:00:48.195Z,14.13
2017-09-17T01:03:15.746Z,17.77
2017-09-17T01:05:43.577Z,21.60
2017-09-17T01:08:11.086Z,15.73
2017-09-17T01:10:38.690Z,18.20
2017-09-17T01:13:06.507Z,16.30
2017-09-17T01:15:34.011Z,25.60
2017-09-17T01:18:01.586Z,17.87
2017-09-17T01:20:29.239Z,23.50
2017-09-17T01:22:56.772Z,17.50
2017-09-17T01:25:24.329Z,23.37
2017-09-17T01:27:52.907Z,22.33
2017-09-17T01:30:20.614Z,18.93
2017-09-17T01:32:48.126Z,18.80
2017-09-17T01:35:16.804Z,18.23
2017-09-17T01:37:44.302Z,16.97
2017-09-17T01:40:11.812Z,21.17
2017-09-17T01:42:39.643Z,16.07
2017-09-17T01:45:07.340Z,14.53
2017-09-17T01:47:34.894Z,15.50
2017-09-17T01:50:02.694Z,17.07
2017-09-17T01:52:30.233Z,17.80
2017-09-17T01:54:57.731Z,18.63
2017-09-17T01:57:25.290Z,19.80
2017-09-17T01:59:52.914Z,13.80
2017-09-17T02:02:20.426Z,15.13
2017-09-17T02:04:48.361Z,15.03
2017-09-17T02:07:16.111Z,23.20
2017-09-17T02:09:43.823Z,15.73
2017-09-17T02:12:11.388Z,17.43
2017-09-17T02:14:38.895Z,12.33
2017-09-17T02:17:06.419Z,12.43
2017-09-17T02:19:33.971Z,13.90
2017-09-17T02:22:01.576Z,16.00
2017-09-17T02:24:29.851Z,10.90
2017-09-17T02:26:58.185Z,10.90
2017-09-17T02:29:25.724Z,11.13
2017-09-17T02:31:54.432Z,11.43
2017-09-17T02:34:21.996Z,13.13
2017-09-17T02:36:50.264Z,14.43
2017-09-17T02:39:18.920Z,14.57
2017-09-17T02:41:46.498Z,11.60
2017-09-17T02:44:14.127Z,12.30
2017-09-17T02:46:41.668Z,14.83
2017-09-17T02:49:09.220Z,10.63
2017-09-17T02:51:36.723Z,11.67
2017-09-17T02:54:04.240Z,11.33
2017-09-17T02:56:31.776Z,11.10
2017-09-17T02:58:59.344Z,13.40
2017-09-17T03:01:26.855Z,10.40
2017-09-17T03:03:54.759Z,11.47
2017-09-17T03:06:22.325Z,12.00
2017-09-17T03:08:49.844Z,11.23
2017-09-17T03:11:17.625Z,12.90
2017-09-17T03:13:45.123Z,11.50
2017-09-17T03:16:12.622Z,16.97
2017-09-17T03:18:40.414Z,20.03
2017-09-17T03:21:07.928Z,51.47
2017-09-17T03:23:36.366Z,44.60
2017-09-17T03:26:04.311Z,30.80
2017-09-17T03:28:31.818Z,16.27
2017-09-17T03:30:59.324Z,15.00
2017-09-17T03:33:27.092Z,21.23
2017-09-17T03:35:54.655Z,20.87
2017-09-17T03:38:22.160Z,28.50
2017-09-17T03:40:50.078Z,24.27
2017-09-17T03:43:17.668Z,22.67
2017-09-17T03:45:45.267Z,23.60
2017-09-17T03:48:12.939Z,27.90
2017-09-17T03:50:40.491Z,28.67
2017-09-17T03:53:08.912Z,27.47
2017-09-17T03:55:36.744Z,20.70
2017-09-17T03:58:04.252Z,20.83
2017-09-17T04:00:31.759Z,16.50
2017-09-17T04:03:00.083Z,21.07
2017-09-17T04:05:27.719Z,25.10
2017-09-17T04:07:55.215Z,19.43
2017-09-17T04:10:22.985Z,17.90
2017-09-17T04:12:50.488Z,12.57
2017-09-17T04:15:18.976Z,10.07
2017-09-17T04:17:46.530Z,15.27
2017-09-17T04:20:14.084Z,12.93
2017-09-17T04:22:42.382Z,16.20
2017-09-17T04:25:10.311Z,17.67
2017-09-17T04:27:37.895Z,24.10
2017-09-17T04:30:05.421Z,14.33
2017-09-17T04:32:33.332Z,12.80
2017-09-17T04:35:00.905Z,20.13
2017-09-17T04:37:28.402Z,19.30
2017-09-17T04:39:55.950Z,40.20
2017-09-17T04:42:23.451Z,38.70
2017-09-17T04:44:52.037Z,33.47
2017-09-17T04:47:19.550Z,65.93
2017-09-17T04:49:47.282Z,34.53
2017-09-17T04:52:14.841Z,78.00
2017-09-17T04:54:42.350Z,131.23
2017-09-17T04:57:09.907Z,88.87
2017-09-17T04:59:37.943Z,91.87
2017-09-17T05:02:05.447Z,81.07
2017-09-17T05:04:32.947Z,97.73
2017-09-17T05:07:00.840Z,81.37
2017-09-17T05:09:28.355Z,85.67
2017-09-17T05:11:55.903Z,54.40
2017-09-17T05:14:23.527Z,91.97
2017-09-17T05:16:51.026Z,48.90
2017-09-17T05:19:18.546Z,40.10
2017-09-17T05:21:46.111Z,23.07
2017-09-17T05:24:13.631Z,20.10
2017-09-17T05:26:41.167Z,33.73
2017-09-17T05:29:09.753Z,21.77
2017-09-17T05:31:37.283Z,24.30
2017-09-17T05:34:04.799Z,16.30
2017-09-17T05:36:32.360Z,16.83
2017-09-17T05:38:59.881Z,43.07
2017-09-17T05:41:28.152Z,26.90
2017-09-17T05:43:56.480Z,15.63
2017-09-17T05:46:24.011Z,13.83
2017-09-17T05:48:51.551Z,17.83
2017-09-17T05:51:19.879Z,27.00
2017-09-17T05:53:47.385Z,24.83
2017-09-17T05:56:14.907Z,10.37
2017-09-17T05:58:42.673Z,10.10
2017-09-17T06:01:10.213Z,9.00
2017-09-17T06:03:37.715Z,9.50
2017-09-17T06:06:05.542Z,10.00
2017-09-17T06:08:33.050Z,14.47
2017-09-17T06:11:01.391Z,15.43
2017-09-17T06:13:28.975Z,12.30
2017-09-17T06:15:56.475Z,7.90
2017-09-17T06:18:23.975Z,8.30
2017-09-17T06:20:51.523Z,9.60
2017-09-17T06:23:19.018Z,7.50
2017-09-17T06:25:46.516Z,7.90
2017-09-17T06:28:14.323Z,8.03
2017-09-17T06:30:41.826Z,6.03
2017-09-17T06:33:09.330Z,5.90
2017-09-17T06:35:37.146Z,9.20
2017-09-17T06:38:05.406Z,7.63
2017-09-17T06:40:33.672Z,6.50
2017-09-17T06:43:01.231Z,6.30
2017-09-17T06:45:28.737Z,5.17
2017-09-17T06:47:56.376Z,6.97
2017-09-17T06:50:23.939Z,6.23
2017-09-17T06:52:51.511Z,6.40
2017-09-17T06:55:19.060Z,7.13
2017-09-17T06:57:47.411Z,7.10
2017-09-17T07:00:15.003Z,4.90
2017-09-17T07:02:42.515Z,7.27
2017-09-17T07:05:10.360Z,7.93
2017-09-17T07:07:38.287Z,6.37
2017-09-17T07:10:05.800Z,8.10
2017-09-17T07:12:33.714Z,7.13
2017-09-17T07:15:02.036Z,7.10
2017-09-17T07:17:29.732Z,6.80
2017-09-17T07:19:57.484Z,7.03
2017-09-17T07:22:25.022Z,7.37
2017-09-17T07:24:52.927Z,7.60
2017-09-17T07:27:20.503Z,5.33
2017-09-17T07:29:48.768Z,6.47
2017-09-17T07:32:16.280Z,7.63
2017-09-17T07:34:44.620Z,5.73
2017-09-17T07:37:12.178Z,5.33
2017-09-17T07:39:40.499Z,7.17
2017-09-17T07:42:08.313Z,6.40
2017-09-17T07:44:36.583Z,6.83
2017-09-17T07:47:04.087Z,6.20
2017-09-17T07:49:31.640Z,7.07
2017-09-17T07:52:00.180Z,7.40
2017-09-17T07:54:28.394Z,6.67
2017-09-17T07:56:56.607Z,6.47
2017-09-17T07:59:24.111Z,6.43
2017-09-17T08:01:51.619Z,6.80
2017-09-17T08:04:19.630Z,7.47
2017-09-17T08:06:47.270Z,7.40
2017-09-17T08:09:14.776Z,6.60
2017-09-17T08:11:42.528Z,5.70
2017-09-17T08:14:10.828Z,12.10
2017-09-17T08:16:38.336Z,6.93
2017-09-17T08:19:05.887Z,8.80
2017-09-17T08:21:33.411Z,6.33
2017-09-17T08:24:01.156Z,9.00
2017-09-17T08:26:28.737Z,6.83
2017-09-17T08:28:56.242Z,6.87
2017-09-17T08:31:23.831Z,8.70
2017-09-17T08:33:51.412Z,11.20
2017-09-17T08:36:18.915Z,7.20
2017-09-17T08:38:46.434Z,7.63
2017-09-17T08:41:13.963Z,6.77
2017-09-17T08:43:41.472Z,6.37
2017-09-17T08:46:09.116Z,7.20
2017-09-17T08:48:36.614Z,6.60
2017-09-17T08:51:04.108Z,6.47
2017-09-17T08:53:31.991Z,8.23
2017-09-17T08:55:59.702Z,6.03
2017-09-17T08:58:27.279Z,8.97
2017-09-17T09:00:55.867Z,7.97
2017-09-17T09:03:23.367Z,6.13
2017-09-17T09:05:50.877Z,7.93
2017-09-17T09:08:19.626Z,6.20
2017-09-17T09:10:47.332Z,8.10
2017-09-17T09:13:14.845Z,6.50
2017-09-17T09:15:42.674Z,6.57
2017-09-17T09:18:10.221Z,6.03
2017-09-17T09:20:38.495Z,5.70
2017-09-17T09:23:06.864Z,5.87
2017-09-17T09:25:34.536Z,5.83
2017-09-17T09:28:02.155Z,5.53
2017-09-17T09:30:29.780Z,5.33
2017-09-17T09:32:57.288Z,6.63
2017-09-17T09:35:25.999Z,5.13
2017-09-17T09:37:53.547Z,6.00
2017-09-17T09:40:21.046Z,5.13
2017-09-17T09:42:48.570Z,6.00
2017-09-17T09:45:16.198Z,7.37
2017-09-17T09:47:43.795Z,5.30
2017-09-17T09:50:12.145Z,5.90
2017-09-17T09:52:40.050Z,6.60
2017-09-17T09:55:07.587Z,5.70
2017-09-17T09:57:35.087Z,4.47
2017-09-17T10:00:02.659Z,5.53
2017-09-17T10:02:30.171Z,4.87
2017-09-17T10:04:58.464Z,6.43
2017-09-17T10:07:27.107Z,6.90
2017-09-17T10:09:54.607Z,4.50
2017-09-17T10:12:22.905Z,5.97
2017-09-17T10:14:50.727Z,5.93
2017-09-17T10:17:18.236Z,5.03
2017-09-17T10:19:46.059Z,4.60
2017-09-17T10:22:14.332Z,4.27
2017-09-17T10:24:41.831Z,4.70
2017-09-17T10:27:09.694Z,4.13
2017-09-17T10:29:37.496Z,5.27
2017-09-17T10:32:05.023Z,5.50
2017-09-17T10:34:32.756Z,4.63
2017-09-17T10:37:00.996Z,4.27
2017-09-17T10:39:28.631Z,3.50
2017-09-17T10:41:56.127Z,4.43
2017-09-17T10:44:23.807Z,3.57
2017-09-17T10:46:51.307Z,3.90
2017-09-17T10:49:18.813Z,3.20
2017-09-17T10:51:46.420Z,2.93
2017-09-17T10:54:13.951Z,3.60
2017-09-17T10:56:42.239Z,7.60
2017-09-17T10:59:09.841Z,10.80
2017-09-17T11:01:37.363Z,5.70
2017-09-17T11:04:05.632Z,6.17
2017-09-17T11:06:33.939Z,6.07
2017-09-17T11:09:01.474Z,4.80
2017-09-17T11:11:29.151Z,4.50
2017-09-17T11:13:57.328Z,3.37
2017-09-17T11:16:24.842Z,3.50
2017-09-17T11:18:53.264Z,3.50
2017-09-17T11:21:20.968Z,5.00
2017-09-17T11:23:48.470Z,3.50
2017-09-17T11:26:16.495Z,3.23
2017-09-17T11:28:44.395Z,4.73
2017-09-17T11:31:11.956Z,4.83
2017-09-17T11:33:41.120Z,3.57
2017-09-17T11:36:09.485Z,3.03
2017-09-17T11:38:37.322Z,6.57
2017-09-17T11:41:04.900Z,3.03
2017-09-17T11:43:32.403Z,4.73
2017-09-17T11:45:59.942Z,4.03
2017-09-17T11:48:27.883Z,4.20
2017-09-17T11:50:55.859Z,4.10
2017-09-17T11:53:23.397Z,4.60
2017-09-17T11:55:51.219Z,3.57
2017-09-17T11:58:18.711Z,3.77
2017-09-17T12:00:46.983Z,14.67
2017-09-17T12:03:15.559Z,6.90
2017-09-17T12:05:43.640Z,3.87
2017-09-17T12:08:11.213Z,11.60
2017-09-17T12:10:39.196Z,4.93
2017-09-17T12:13:07.223Z,4.40
2017-09-17T12:15:34.772Z,3.83
2017-09-17T12:18:02.327Z,3.33
2017-09-17T12:20:29.831Z,6.07
2017-09-17T12:22:57.329Z,3.10
2017-09-17T12:25:24.909Z,4.57
2017-09-17T12:27:52.412Z,3.87
2017-09-17T12:30:19.935Z,5.33
2017-09-17T12:32:47.507Z,3.10
2017-09-17T12:35:15.015Z,4.40
2017-09-17T12:37:42.515Z,3.50
2017-09-17T12:40:10.082Z,2.47
2017-09-17T12:42:37.603Z,3.73
2017-09-17T12:45:05.107Z,2.43
2017-09-17T12:47:33.428Z,3.90
2017-09-17T12:50:00.977Z,2.50
2017-09-17T12:52:28.510Z,2.70
2017-09-17T12:54:56.812Z,3.00
2017-09-17T12:57:24.357Z,4.20
2017-09-17T12:59:51.868Z,2.70
2017-09-17T13:02:19.431Z,3.50
2017-09-17T13:04:46.944Z,2.57
2017-09-17T13:07:14.445Z,5.23
2017-09-17T13:09:42.025Z,2.57
2017-09-17T13:12:09.556Z,3.53
2017-09-17T13:14:37.055Z,2.57
2017-09-17T13:17:05.363Z,6.20
2017-09-17T13:19:32.859Z,3.47
2017-09-17T13:22:00.372Z,3.97
2017-09-17T13:24:27.936Z,2.83
2017-09-17T13:26:55.479Z,2.70
2017-09-17T13:29:23.007Z,3.00
2017-09-17T13:31:50.555Z,2.70
2017-09-17T13:34:18.059Z,4.50
2017-09-17T13:36:45.567Z,3.23
2017-09-17T13:39:13.262Z,2.90
2017-09-17T13:41:41.527Z,2.87
2017-09-17T13:44:09.036Z,3.80
2017-09-17T13:46:36.599Z,2.53
2017-09-17T13:49:04.107Z,2.87
2017-09-17T13:51:32.385Z,2.70
2017-09-17T13:53:59.949Z,2.93
2017-09-17T13:56:27.466Z,2.70
2017-09-17T13:58:55.008Z,3.20
2017-09-17T14:01:23.046Z,3.27
2017-09-17T14:03:51.907Z,4.67
2017-09-17T14:06:21.037Z,5.73
2017-09-17T14:09:04.491Z,3.67
2017-09-17T14:11:32.788Z,3.53
2017-09-17T14:14:00.300Z,2.70
2017-09-17T14:16:27.847Z,2.70
2017-09-17T14:18:55.362Z,3.53
2017-09-17T14:21:22.863Z,2.43
2017-09-17T14:23:50.407Z,3.40
2017-09-17T14:26:17.927Z,2.77
2017-09-17T14:28:45.430Z,3.13
2017-09-17T14:31:12.976Z,2.57
2017-09-17T14:33:40.511Z,2.37
2017-09-17T14:36:08.021Z,3.27
2017-09-17T14:38:35.572Z,3.60
2017-09-17T14:41:03.080Z,4.20
2017-09-17T14:43:30.577Z,4.60
2017-09-17T14:45:58.150Z,5.00
2017-09-17T14:48:25.655Z,2.73
2017-09-17T14:50:53.170Z,2.80
2017-09-17T14:53:20.720Z,2.80
2017-09-17T14:55:48.218Z,2.87
2017-09-17T14:58:15.725Z,2.80
2017-09-17T15:00:43.626Z,2.77
2017-09-17T15:03:11.135Z,3.20
2017-09-17T15:05:38.640Z,3.47
2017-09-17T15:08:07.300Z,3.90
2017-09-17T15:10:34.811Z,2.97
2017-09-17T15:13:02.318Z,3.33
2017-09-17T15:15:29.851Z,2.60
2017-09-17T15:17:57.354Z,3.90
2017-09-17T15:20:24.897Z,4.13
2017-09-17T15:22:52.463Z,7.00
2017-09-17T15:25:20.091Z,3.03
2017-09-17T15:27:47.607Z,4.50
2017-09-17T15:30:15.975Z,4.67
2017-09-17T15:32:43.479Z,3.80
2017-09-17T15:35:10.993Z,3.70
2017-09-17T15:37:39.307Z,4.13
2017-09-17T15:40:06.803Z,3.40
2017-09-17T15:42:34.323Z,5.93
2017-09-17T15:45:01.985Z,3.23
2017-09-17T15:47:29.483Z,3.07
2017-09-17T15:49:56.979Z,4.00
2017-09-17T15:52:25.346Z,4.93
2017-09-17T15:54:52.847Z,4.13
2017-09-17T15:57:20.378Z,3.50
2017-09-17T15:59:47.936Z,4.43
2017-09-17T16:02:15.451Z,4.60
2017-09-17T16:04:42.955Z,5.57
2017-09-17T16:07:10.528Z,2.73
2017-09-17T16:09:38.063Z,3.90
2017-09-17T16:12:06.343Z,3.17
2017-09-17T16:14:34.650Z,2.50
2017-09-17T16:17:02.171Z,2.97
2017-09-17T16:19:29.685Z,3.40
2017-09-17T16:21:57.231Z,3.00
2017-09-17T16:24:24.762Z,3.17
2017-09-17T16:26:52.295Z,4.30
2017-09-17T16:29:19.858Z,4.70
2017-09-17T16:31:47.356Z,5.70
2017-09-17T16:34:14.858Z,3.90
2017-09-17T16:36:43.495Z,4.23
2017-09-17T16:39:11.002Z,3.37
2017-09-17T16:41:38.547Z,5.30
2017-09-17T16:44:06.108Z,3.70
2017-09-17T16:46:33.624Z,4.90
2017-09-17T16:49:01.908Z,8.23
2017-09-17T16:51:29.468Z,5.43
2017-09-17T16:53:56.976Z,5.40
2017-09-17T16:56:24.471Z,6.20
2017-09-17T16:58:52.821Z,6.70
2017-09-17T17:01:20.379Z,5.50
2017-09-17T17:03:47.891Z,4.20
2017-09-17T17:06:15.455Z,3.70
2017-09-17T17:08:42.958Z,4.27
2017-09-17T17:11:10.472Z,5.10
2017-09-17T17:13:38.507Z,3.90
2017-09-17T17:16:06.805Z,5.43
2017-09-17T17:18:34.318Z,5.67
2017-09-17T17:21:01.912Z,3.93
2017-09-17T17:23:30.183Z,4.40
2017-09-17T17:25:58.539Z,7.10
2017-09-17T17:28:27.035Z,10.83
2017-09-17T17:30:54.547Z,9.70
2017-09-17T17:33:22.063Z,6.03
2017-09-17T17:35:49.693Z,3.73
2017-09-17T17:40:50.972Z,4.80
2017-09-17T17:43:18.488Z,6.40
2017-09-17T17:45:45.995Z,9.00
2017-09-17T17:48:13.556Z,7.63
2017-09-17T17:50:41.833Z,5.93
2017-09-17T17:53:10.156Z,7.13
2017-09-17T17:55:37.712Z,6.37
2017-09-17T17:58:05.271Z,7.37
2017-09-17T18:00:32.805Z,5.33
2017-09-17T18:03:00.358Z,5.30
2017-09-17T18:05:28.631Z,3.97
2017-09-17T18:07:56.918Z,4.80
2017-09-17T18:10:24.471Z,6.37
2017-09-17T18:12:51.981Z,3.50
2017-09-17T18:15:19.480Z,4.67
2017-09-17T18:17:47.798Z,4.40
2017-09-17T18:20:15.299Z,4.50
2017-09-17T18:22:42.808Z,4.20
2017-09-17T18:25:10.371Z,5.30
2017-09-17T18:27:37.879Z,5.27
2017-09-17T18:30:05.383Z,5.90
2017-09-17T18:32:32.939Z,4.90
2017-09-17T18:35:02.013Z,13.17
2017-09-17T18:37:30.299Z,6.00
2017-09-17T18:39:58.251Z,5.00
2017-09-17T18:42:25.807Z,5.00
2017-09-17T18:44:53.338Z,6.50
2017-09-17T18:47:20.887Z,6.90
2017-09-17T18:49:48.395Z,4.20
2017-09-17T18:52:17.039Z,10.13
2017-09-17T18:54:44.629Z,5.17
2017-09-17T18:57:12.130Z,10.77
2017-09-17T18:59:39.706Z,3.87
2017-09-17T19:02:07.285Z,4.37
2017-09-17T19:04:34.941Z,5.20
2017-09-17T19:07:02.448Z,5.77
2017-09-17T19:09:30.941Z,4.03
2017-09-17T19:11:58.451Z,4.77
2017-09-17T19:14:25.969Z,4.37
2017-09-17T19:16:53.531Z,6.30
2017-09-17T19:19:21.043Z,7.20
2017-09-17T19:21:48.692Z,5.70
2017-09-17T19:24:16.632Z,7.43
2017-09-17T19:26:44.148Z,3.70
2017-09-17T19:29:12.544Z,4.17
2017-09-17T19:31:40.223Z,4.30
2017-09-17T19:34:08.074Z,7.80
2017-09-17T19:36:35.600Z,7.37
2017-09-17T19:39:04.352Z,6.13
2017-09-17T19:41:31.913Z,5.70
2017-09-17T19:43:59.415Z,5.50
2017-09-17T19:46:28.154Z,6.40
2017-09-17T19:48:55.744Z,10.00
2017-09-17T19:51:23.816Z,13.27
2017-09-17T19:53:51.415Z,10.97
2017-09-17T19:56:18.954Z,7.50
2017-09-17T19:58:47.255Z,9.13
2017-09-17T20:01:14.802Z,11.93
2017-09-17T20:03:42.300Z,11.00
2017-09-17T20:06:10.074Z,11.63
2017-09-17T20:08:37.663Z,6.40
2017-09-17T20:11:05.183Z,5.20
2017-09-17T20:13:32.694Z,6.90
2017-09-17T20:16:00.845Z,8.93
2017-09-17T20:18:28.350Z,6.90
2017-09-17T20:20:55.871Z,9.50
2017-09-17T20:23:23.482Z,8.87
2017-09-17T20:25:52.119Z,9.97
2017-09-17T20:28:19.628Z,14.60
2017-09-17T20:30:47.199Z,10.80
2017-09-17T20:33:14.708Z,11.00
2017-09-17T20:35:42.228Z,10.30
2017-09-17T20:38:09.816Z,12.63
2017-09-17T20:40:38.164Z,13.20
2017-09-17T20:43:05.937Z,15.20
2017-09-17T20:45:33.822Z,15.90
2017-09-17T20:48:01.377Z,17.40
2017-09-17T20:50:28.874Z,15.97
2017-09-17T20:52:56.753Z,15.30
2017-09-17T20:55:24.263Z,10.97
2017-09-17T20:57:51.783Z,8.80
2017-09-17T21:00:19.332Z,10.20
2017-09-17T21:02:46.920Z,8.67
2017-09-17T21:05:14.431Z,10.33
2017-09-17T21:07:42.363Z,9.90
2017-09-17T21:10:09.892Z,16.47
2017-09-17T21:12:37.408Z,16.33
2017-09-17T21:15:05.358Z,13.37
2017-09-17T21:17:33.626Z,10.63
2017-09-17T21:20:01.777Z,12.37
2017-09-17T21:22:29.607Z,13.53
2017-09-17T21:24:57.167Z,15.90
2017-09-17T21:27:24.710Z,9.17
2017-09-17T21:29:53.197Z,10.47
2017-09-17T21:32:21.460Z,8.73
2017-09-17T21:34:48.975Z,10.60
2017-09-17T21:37:16.803Z,8.37
2017-09-17T21:39:45.135Z,11.60
2017-09-17T21:42:12.664Z,14.20
2017-09-17T21:44:40.383Z,12.60
2017-09-17T21:47:07.887Z,13.50
2017-09-17T21:49:35.475Z,12.93
2017-09-17T21:52:03.835Z,14.60
2017-09-17T21:54:31.364Z,17.23
2017-09-17T21:56:58.883Z,16.20
2017-09-17T21:59:26.715Z,12.70
2017-09-17T22:01:54.227Z,14.10
2017-09-17T22:04:21.732Z,14.70
2017-09-17T22:06:49.522Z,13.20
2017-09-17T22:09:17.043Z,9.23
2017-09-17T22:11:44.579Z,11.80
2017-09-17T22:14:13.167Z,8.07
2017-09-17T22:16:41.615Z,12.23
2017-09-17T22:19:09.255Z,7.57
2017-09-17T22:21:37.059Z,8.70
2017-09-17T22:24:04.599Z,6.90
2017-09-17T22:26:32.143Z,5.07
2017-09-17T22:28:59.938Z,7.40
2017-09-17T22:31:27.443Z,10.03
2017-09-17T22:33:54.974Z,6.10
2017-09-17T22:36:22.808Z,5.07
2017-09-17T22:38:50.325Z,4.70
2017-09-17T22:41:17.962Z,4.07
2017-09-17T22:43:45.531Z,3.43
2017-09-17T22:46:13.100Z,6.17
2017-09-17T22:48:40.687Z,4.57
2017-09-17T22:51:08.275Z,4.33
2017-09-17T22:53:35.791Z,3.33
2017-09-17T22:56:03.507Z,3.60
2017-09-17T22:58:31.083Z,6.90
2017-09-17T23:00:59.411Z,6.63
2017-09-17T23:03:27.103Z,7.83
2017-09-17T23:05:55.193Z,3.20
2017-09-17T23:08:22.932Z,3.47
2017-09-17T23:10:50.503Z,4.20
2017-09-17T23:13:18.298Z,5.63
2017-09-17T23:15:46.025Z,5.30
2017-09-17T23:18:13.595Z,6.00
2017-09-17T23:20:41.172Z,6.40
2017-09-17T23:23:09.235Z,4.40
2017-09-17T23:25:37.116Z,4.33
2017-09-17T23:28:05.682Z,6.30
2017-09-17T23:30:33.943Z,4.20
2017-09-17T23:33:01.458Z,5.50
2017-09-17T23:35:29.002Z,5.20
2017-09-17T23:37:56.518Z,5.43
2017-09-17T23:40:24.059Z,4.27
2017-09-17T23:42:51.623Z,4.20
2017-09-17T23:45:19.238Z,3.87
2017-09-17T23:47:46.759Z,3.43
2017-09-17T23:50:14.527Z,4.40
2017-09-17T23:52:42.042Z,5.20
2017-09-17T23:55:09.536Z,4.10
2017-09-17T23:57:37.248Z,4.40
